sensor_id;sensor_type;location;lat;lon;timestamp;P1;durP1;ratioP1;P2;durP2;ratioP2
3261;SDS011;1643;47.746;9.000;2024-03-02T00:00:00;8.67;;;6.07;;
3261;SDS011;1643;47.746;9.000;2024-03-02T00:02:34;8.67;;;5.77;;
3261;SDS011;1643;47.746;9.000;2024-03-02T00:05:06;7.07;;;6.20;;
3261;SDS011;1643;47.746;9.000;2024-03-02T00:07:32;7.87;;;6.70;;
3261;SDS011;1643;47.746;9.000;2024-03-02T00:09:58;7.93;;;6.23;;
3261;SDS011;1643;47.746;9.000;2024-03-02T00:12:24;7.57;;;6.40;;
3261;SDS011;1643;47.746;9.000;2024-03-02T00:14:50;13.50;;;9.27;;
3261;SDS011;1643;47.746;9.000;2024-03-02T00:17:21;14.33;;;9.60;;
3261;SDS011;1643;47.746;9.000;2024-03-02T00:19:50;14.83;;;9.90;;
3261;SDS011;1643;47.746;9.000;2024-03-02T00:22:17;13.87;;;9.57;;
3261;SDS011;1643;47.746;9.000;2024-03-02T00:24:43;16.00;;;10.37;;
3261;SDS011;1643;47.746;9.000;2024-03-02T00:27:08;13.50;;;9.60;;
3261;SDS011;1643;47.746;9.000;2024-03-02T00:29:40;13.33;;;9.60;;
3261;SDS011;1643;47.746;9.000;2024-03-02T00:32:12;14.00;;;9.57;;
3261;SDS011;1643;47.746;9.000;2024-03-02T00:34:49;13.97;;;10.30;;
3261;SDS011;1643;47.746;9.000;2024-03-02T00:37:21;13.90;;;9.93;;
3261;SDS011;1643;47.746;9.000;2024-03-02T00:39:49;12.73;;;9.40;;
3261;SDS011;1643;47.746;9.000;2024-03-02T00:42:14;10.83;;;7.63;;
3261;SDS011;1643;47.746;9.000;2024-03-02T00:44:40;12.03;;;8.70;;
3261;SDS011;1643;47.746;9.000;2024-03-02T00:47:06;13.17;;;9.63;;
3261;SDS011;1643;47.746;9.000;2024-03-02T00:49:32;13.10;;;10.37;;
3261;SDS011;1643;47.746;9.000;2024-03-02T00:51:58;11.07;;;9.13;;
3261;SDS011;1643;47.746;9.000;2024-03-02T00:54:27;14.53;;;9.93;;
3261;SDS011;1643;47.746;9.000;2024-03-02T00:56:54;13.90;;;9.93;;
3261;SDS011;1643;47.746;9.000;2024-03-02T00:59:21;14.20;;;9.63;;
3261;SDS011;1643;47.746;9.000;2024-03-02T01:01:48;14.27;;;8.80;;
3261;SDS011;1643;47.746;9.000;2024-03-02T01:04:14;16.63;;;9.50;;
3261;SDS011;1643;47.746;9.000;2024-03-02T01:06:40;13.83;;;9.90;;
3261;SDS011;1643;47.746;9.000;2024-03-02T01:09:07;12.43;;;9.10;;
3261;SDS011;1643;47.746;9.000;2024-03-02T01:11:33;14.73;;;9.10;;
3261;SDS011;1643;47.746;9.000;2024-03-02T01:13:58;13.50;;;9.07;;
3261;SDS011;1643;47.746;9.000;2024-03-02T01:16:24;11.67;;;8.70;;
3261;SDS011;1643;47.746;9.000;2024-03-02T01:18:50;18.50;;;9.93;;
3261;SDS011;1643;47.746;9.000;2024-03-02T01:21:15;15.53;;;10.40;;
3261;SDS011;1643;47.746;9.000;2024-03-02T01:23:41;13.00;;;9.30;;
3261;SDS011;1643;47.746;9.000;2024-03-02T01:26:07;15.67;;;10.57;;
3261;SDS011;1643;47.746;9.000;2024-03-02T01:28:33;12.00;;;10.03;;
3261;SDS011;1643;47.746;9.000;2024-03-02T01:30:59;15.50;;;10.70;;
3261;SDS011;1643;47.746;9.000;2024-03-02T01:33:24;14.40;;;9.60;;
3261;SDS011;1643;47.746;9.000;2024-03-02T01:35:50;13.47;;;9.33;;
3261;SDS011;1643;47.746;9.000;2024-03-02T01:38:16;15.63;;;9.97;;
3261;SDS011;1643;47.746;9.000;2024-03-02T01:40:42;24.77;;;11.10;;
3261;SDS011;1643;47.746;9.000;2024-03-02T01:43:09;13.13;;;8.90;;
3261;SDS011;1643;47.746;9.000;2024-03-02T01:45:35;13.47;;;9.07;;
3261;SDS011;1643;47.746;9.000;2024-03-02T01:48:02;10.07;;;8.53;;
3261;SDS011;1643;47.746;9.000;2024-03-02T01:50:32;11.53;;;8.90;;
3261;SDS011;1643;47.746;9.000;2024-03-02T01:52:59;11.70;;;9.03;;
3261;SDS011;1643;47.746;9.000;2024-03-02T01:55:25;12.97;;;8.30;;
3261;SDS011;1643;47.746;9.000;2024-03-02T01:57:51;10.13;;;8.17;;
3261;SDS011;1643;47.746;9.000;2024-03-02T02:00:17;10.53;;;8.63;;
3261;SDS011;1643;47.746;9.000;2024-03-02T02:02:44;10.67;;;8.40;;
3261;SDS011;1643;47.746;9.000;2024-03-02T02:05:10;11.50;;;8.40;;
3261;SDS011;1643;47.746;9.000;2024-03-02T02:07:36;10.47;;;7.97;;
3261;SDS011;1643;47.746;9.000;2024-03-02T02:10:02;10.13;;;8.17;;
3261;SDS011;1643;47.746;9.000;2024-03-02T02:12:28;10.83;;;9.10;;
3261;SDS011;1643;47.746;9.000;2024-03-02T02:14:53;10.87;;;8.83;;
3261;SDS011;1643;47.746;9.000;2024-03-02T02:17:19;12.67;;;8.47;;
3261;SDS011;1643;47.746;9.000;2024-03-02T02:19:45;8.93;;;7.37;;
3261;SDS011;1643;47.746;9.000;2024-03-02T02:22:11;11.80;;;9.10;;
3261;SDS011;1643;47.746;9.000;2024-03-02T02:24:40;10.13;;;8.13;;
3261;SDS011;1643;47.746;9.000;2024-03-02T02:27:07;11.00;;;8.87;;
3261;SDS011;1643;47.746;9.000;2024-03-02T02:29:33;9.73;;;8.17;;
3261;SDS011;1643;47.746;9.000;2024-03-02T02:31:58;9.90;;;8.17;;
3261;SDS011;1643;47.746;9.000;2024-03-02T02:34:24;16.27;;;9.17;;
3261;SDS011;1643;47.746;9.000;2024-03-02T02:36:50;40.67;;;10.70;;
3261;SDS011;1643;47.746;9.000;2024-03-02T02:39:16;19.20;;;10.90;;
3261;SDS011;1643;47.746;9.000;2024-03-02T02:41:43;11.73;;;9.47;;
3261;SDS011;1643;47.746;9.000;2024-03-02T02:44:09;18.00;;;9.03;;
3261;SDS011;1643;47.746;9.000;2024-03-02T02:46:38;23.53;;;9.40;;
3261;SDS011;1643;47.746;9.000;2024-03-02T02:49:04;10.10;;;8.20;;
3261;SDS011;1643;47.746;9.000;2024-03-02T02:51:29;11.47;;;8.80;;
3261;SDS011;1643;47.746;9.000;2024-03-02T02:53:55;12.20;;;8.40;;
3261;SDS011;1643;47.746;9.000;2024-03-02T02:56:21;11.03;;;9.20;;
3261;SDS011;1643;47.746;9.000;2024-03-02T02:58:47;12.10;;;8.47;;
3261;SDS011;1643;47.746;9.000;2024-03-02T03:01:12;12.70;;;9.40;;
3261;SDS011;1643;47.746;9.000;2024-03-02T03:03:38;14.27;;;10.33;;
3261;SDS011;1643;47.746;9.000;2024-03-02T03:06:04;12.00;;;8.93;;
3261;SDS011;1643;47.746;9.000;2024-03-02T03:08:29;15.80;;;9.80;;
3261;SDS011;1643;47.746;9.000;2024-03-02T03:10:55;12.43;;;8.77;;
3261;SDS011;1643;47.746;9.000;2024-03-02T03:13:20;13.83;;;10.00;;
3261;SDS011;1643;47.746;9.000;2024-03-02T03:15:46;13.13;;;9.00;;
3261;SDS011;1643;47.746;9.000;2024-03-02T03:18:12;13.13;;;9.57;;
3261;SDS011;1643;47.746;9.000;2024-03-02T03:20:37;11.60;;;9.30;;
3261;SDS011;1643;47.746;9.000;2024-03-02T03:23:03;13.27;;;9.20;;
3261;SDS011;1643;47.746;9.000;2024-03-02T03:25:29;13.80;;;10.27;;
3261;SDS011;1643;47.746;9.000;2024-03-02T03:27:55;12.10;;;8.10;;
3261;SDS011;1643;47.746;9.000;2024-03-02T03:30:21;12.03;;;8.47;;
3261;SDS011;1643;47.746;9.000;2024-03-02T03:32:46;10.07;;;8.07;;
3261;SDS011;1643;47.746;9.000;2024-03-02T03:35:13;11.17;;;8.67;;
3261;SDS011;1643;47.746;9.000;2024-03-02T03:37:40;11.07;;;8.37;;
3261;SDS011;1643;47.746;9.000;2024-03-02T03:40:06;10.50;;;7.70;;
3261;SDS011;1643;47.746;9.000;2024-03-02T03:42:35;10.17;;;7.67;;
3261;SDS011;1643;47.746;9.000;2024-03-02T03:45:04;9.97;;;7.60;;
3261;SDS011;1643;47.746;9.000;2024-03-02T03:47:31;13.40;;;9.83;;
3261;SDS011;1643;47.746;9.000;2024-03-02T03:49:57;10.67;;;8.10;;
3261;SDS011;1643;47.746;9.000;2024-03-02T03:52:23;11.53;;;8.70;;
3261;SDS011;1643;47.746;9.000;2024-03-02T03:54:49;11.70;;;9.00;;
3261;SDS011;1643;47.746;9.000;2024-03-02T03:57:14;12.70;;;8.90;;
3261;SDS011;1643;47.746;9.000;2024-03-02T03:59:41;13.90;;;9.53;;
3261;SDS011;1643;47.746;9.000;2024-03-02T04:02:06;14.90;;;9.13;;
3261;SDS011;1643;47.746;9.000;2024-03-02T04:04:33;9.37;;;7.50;;
3261;SDS011;1643;47.746;9.000;2024-03-02T04:06:59;11.30;;;8.57;;
3261;SDS011;1643;47.746;9.000;2024-03-02T04:09:24;11.80;;;8.80;;
3261;SDS011;1643;47.746;9.000;2024-03-02T04:11:50;10.53;;;8.60;;
3261;SDS011;1643;47.746;9.000;2024-03-02T04:14:16;8.50;;;7.10;;
3261;SDS011;1643;47.746;9.000;2024-03-02T04:16:42;10.10;;;7.60;;
3261;SDS011;1643;47.746;9.000;2024-03-02T04:19:07;11.60;;;8.03;;
3261;SDS011;1643;47.746;9.000;2024-03-02T04:21:33;10.17;;;7.83;;
3261;SDS011;1643;47.746;9.000;2024-03-02T04:23:59;10.73;;;7.50;;
3261;SDS011;1643;47.746;9.000;2024-03-02T04:26:25;11.90;;;8.57;;
3261;SDS011;1643;47.746;9.000;2024-03-02T04:28:51;12.10;;;8.80;;
3261;SDS011;1643;47.746;9.000;2024-03-02T04:31:17;8.27;;;7.20;;
3261;SDS011;1643;47.746;9.000;2024-03-02T04:33:43;11.47;;;8.43;;
3261;SDS011;1643;47.746;9.000;2024-03-02T04:36:09;9.47;;;7.73;;
3261;SDS011;1643;47.746;9.000;2024-03-02T04:38:35;10.10;;;8.73;;
3261;SDS011;1643;47.746;9.000;2024-03-02T04:41:01;10.67;;;8.43;;
3261;SDS011;1643;47.746;9.000;2024-03-02T04:43:26;11.03;;;8.13;;
3261;SDS011;1643;47.746;9.000;2024-03-02T04:45:52;10.47;;;8.27;;
3261;SDS011;1643;47.746;9.000;2024-03-02T04:48:17;10.03;;;8.10;;
3261;SDS011;1643;47.746;9.000;2024-03-02T04:50:44;11.40;;;8.60;;
3261;SDS011;1643;47.746;9.000;2024-03-02T04:53:10;11.77;;;8.20;;
3261;SDS011;1643;47.746;9.000;2024-03-02T04:55:35;10.87;;;8.50;;
3261;SDS011;1643;47.746;9.000;2024-03-02T04:58:04;10.70;;;8.57;;
3261;SDS011;1643;47.746;9.000;2024-03-02T05:00:30;11.53;;;8.40;;
3261;SDS011;1643;47.746;9.000;2024-03-02T05:02:56;14.00;;;9.77;;
3261;SDS011;1643;47.746;9.000;2024-03-02T05:05:21;11.67;;;8.80;;
3261;SDS011;1643;47.746;9.000;2024-03-02T05:07:47;10.50;;;8.13;;
3261;SDS011;1643;47.746;9.000;2024-03-02T05:10:13;10.53;;;7.73;;
3261;SDS011;1643;47.746;9.000;2024-03-02T05:12:39;12.67;;;9.13;;
3261;SDS011;1643;47.746;9.000;2024-03-02T05:15:08;12.17;;;8.97;;
3261;SDS011;1643;47.746;9.000;2024-03-02T05:17:35;11.77;;;8.80;;
3261;SDS011;1643;47.746;9.000;2024-03-02T05:20:02;9.60;;;8.00;;
3261;SDS011;1643;47.746;9.000;2024-03-02T05:22:28;12.53;;;8.40;;
3261;SDS011;1643;47.746;9.000;2024-03-02T05:24:54;10.10;;;8.23;;
3261;SDS011;1643;47.746;9.000;2024-03-02T05:27:20;11.10;;;8.20;;
3261;SDS011;1643;47.746;9.000;2024-03-02T05:29:45;10.00;;;7.97;;
3261;SDS011;1643;47.746;9.000;2024-03-02T05:32:12;11.63;;;8.50;;
3261;SDS011;1643;47.746;9.000;2024-03-02T05:34:37;10.20;;;7.90;;
3261;SDS011;1643;47.746;9.000;2024-03-02T05:37:03;11.23;;;8.57;;
3261;SDS011;1643;47.746;9.000;2024-03-02T05:39:29;11.50;;;8.37;;
3261;SDS011;1643;47.746;9.000;2024-03-02T05:41:54;10.53;;;8.30;;
3261;SDS011;1643;47.746;9.000;2024-03-02T05:44:20;10.07;;;7.70;;
3261;SDS011;1643;47.746;9.000;2024-03-02T05:46:46;11.00;;;8.50;;
3261;SDS011;1643;47.746;9.000;2024-03-02T05:49:12;10.80;;;8.77;;
3261;SDS011;1643;47.746;9.000;2024-03-02T05:51:37;10.70;;;8.80;;
3261;SDS011;1643;47.746;9.000;2024-03-02T05:54:03;11.50;;;8.53;;
3261;SDS011;1643;47.746;9.000;2024-03-02T05:56:28;10.73;;;7.70;;
3261;SDS011;1643;47.746;9.000;2024-03-02T05:58:54;13.60;;;9.10;;
3261;SDS011;1643;47.746;9.000;2024-03-02T06:01:37;10.00;;;8.33;;
3261;SDS011;1643;47.746;9.000;2024-03-02T06:04:10;10.20;;;8.17;;
3261;SDS011;1643;47.746;9.000;2024-03-02T06:06:36;13.40;;;10.00;;
3261;SDS011;1643;47.746;9.000;2024-03-02T06:09:02;18.83;;;10.90;;
3261;SDS011;1643;47.746;9.000;2024-03-02T06:11:37;12.67;;;9.60;;
3261;SDS011;1643;47.746;9.000;2024-03-02T06:14:04;10.63;;;8.60;;
3261;SDS011;1643;47.746;9.000;2024-03-02T06:16:33;10.30;;;7.30;;
3261;SDS011;1643;47.746;9.000;2024-03-02T06:19:00;9.40;;;7.53;;
3261;SDS011;1643;47.746;9.000;2024-03-02T06:21:26;9.93;;;8.30;;
3261;SDS011;1643;47.746;9.000;2024-03-02T06:23:52;11.40;;;7.83;;
3261;SDS011;1643;47.746;9.000;2024-03-02T06:26:18;10.50;;;8.10;;
3261;SDS011;1643;47.746;9.000;2024-03-02T06:28:44;9.70;;;7.60;;
3261;SDS011;1643;47.746;9.000;2024-03-02T06:31:10;11.70;;;8.70;;
3261;SDS011;1643;47.746;9.000;2024-03-02T06:33:36;10.20;;;7.63;;
3261;SDS011;1643;47.746;9.000;2024-03-02T06:36:02;12.60;;;9.13;;
3261;SDS011;1643;47.746;9.000;2024-03-02T06:38:28;9.27;;;7.60;;
3261;SDS011;1643;47.746;9.000;2024-03-02T06:40:53;12.60;;;9.17;;
3261;SDS011;1643;47.746;9.000;2024-03-02T06:43:20;10.87;;;7.97;;
3261;SDS011;1643;47.746;9.000;2024-03-02T06:45:50;10.97;;;8.57;;
3261;SDS011;1643;47.746;9.000;2024-03-02T06:48:16;10.17;;;8.47;;
3261;SDS011;1643;47.746;9.000;2024-03-02T06:50:45;13.43;;;9.40;;
3261;SDS011;1643;47.746;9.000;2024-03-02T06:53:12;10.70;;;7.73;;
3261;SDS011;1643;47.746;9.000;2024-03-02T06:55:38;11.37;;;8.67;;
3261;SDS011;1643;47.746;9.000;2024-03-02T06:58:04;12.50;;;8.60;;
3261;SDS011;1643;47.746;9.000;2024-03-02T07:00:30;9.17;;;7.10;;
3261;SDS011;1643;47.746;9.000;2024-03-02T07:02:55;10.50;;;8.37;;
3261;SDS011;1643;47.746;9.000;2024-03-02T07:05:21;9.77;;;7.60;;
3261;SDS011;1643;47.746;9.000;2024-03-02T07:07:47;10.30;;;8.17;;
3261;SDS011;1643;47.746;9.000;2024-03-02T07:10:12;11.80;;;8.30;;
3261;SDS011;1643;47.746;9.000;2024-03-02T07:12:38;9.43;;;7.07;;
3261;SDS011;1643;47.746;9.000;2024-03-02T07:15:04;12.67;;;9.20;;
3261;SDS011;1643;47.746;9.000;2024-03-02T07:17:30;10.90;;;8.30;;
3261;SDS011;1643;47.746;9.000;2024-03-02T07:19:57;11.53;;;8.80;;
3261;SDS011;1643;47.746;9.000;2024-03-02T07:22:23;11.07;;;8.00;;
3261;SDS011;1643;47.746;9.000;2024-03-02T07:24:49;10.20;;;7.67;;
3261;SDS011;1643;47.746;9.000;2024-03-02T07:27:15;13.70;;;8.83;;
3261;SDS011;1643;47.746;9.000;2024-03-02T07:29:42;13.20;;;9.70;;
3261;SDS011;1643;47.746;9.000;2024-03-02T07:32:08;13.67;;;8.73;;
3261;SDS011;1643;47.746;9.000;2024-03-02T07:34:35;11.77;;;7.90;;
3261;SDS011;1643;47.746;9.000;2024-03-02T07:37:01;12.77;;;9.20;;
3261;SDS011;1643;47.746;9.000;2024-03-02T07:39:27;13.20;;;8.73;;
3261;SDS011;1643;47.746;9.000;2024-03-02T07:41:52;12.30;;;8.90;;
3261;SDS011;1643;47.746;9.000;2024-03-02T07:44:18;10.57;;;8.40;;
3261;SDS011;1643;47.746;9.000;2024-03-02T07:46:44;12.03;;;8.50;;
3261;SDS011;1643;47.746;9.000;2024-03-02T07:49:20;12.10;;;8.60;;
3261;SDS011;1643;47.746;9.000;2024-03-02T07:51:46;14.20;;;9.60;;
3261;SDS011;1643;47.746;9.000;2024-03-02T07:54:11;18.20;;;9.73;;
3261;SDS011;1643;47.746;9.000;2024-03-02T07:56:37;12.27;;;9.50;;
3261;SDS011;1643;47.746;9.000;2024-03-02T07:59:03;11.80;;;8.40;;
3261;SDS011;1643;47.746;9.000;2024-03-02T08:01:29;10.13;;;7.67;;
3261;SDS011;1643;47.746;9.000;2024-03-02T08:03:59;11.33;;;8.00;;
3261;SDS011;1643;47.746;9.000;2024-03-02T08:06:28;11.43;;;8.00;;
3261;SDS011;1643;47.746;9.000;2024-03-02T08:08:54;10.53;;;7.90;;
3261;SDS011;1643;47.746;9.000;2024-03-02T08:11:21;9.77;;;7.03;;
3261;SDS011;1643;47.746;9.000;2024-03-02T08:13:47;9.63;;;7.60;;
3261;SDS011;1643;47.746;9.000;2024-03-02T08:16:13;11.80;;;9.10;;
3261;SDS011;1643;47.746;9.000;2024-03-02T08:18:40;8.97;;;7.97;;
3261;SDS011;1643;47.746;9.000;2024-03-02T08:21:05;13.17;;;9.90;;
3261;SDS011;1643;47.746;9.000;2024-03-02T08:23:33;12.93;;;8.20;;
3261;SDS011;1643;47.746;9.000;2024-03-02T08:25:59;12.53;;;9.40;;
3261;SDS011;1643;47.746;9.000;2024-03-02T08:28:25;9.70;;;7.80;;
3261;SDS011;1643;47.746;9.000;2024-03-02T08:30:51;10.73;;;7.33;;
3261;SDS011;1643;47.746;9.000;2024-03-02T08:33:16;9.33;;;7.20;;
3261;SDS011;1643;47.746;9.000;2024-03-02T08:35:42;10.60;;;7.80;;
3261;SDS011;1643;47.746;9.000;2024-03-02T08:38:08;9.97;;;8.50;;
3261;SDS011;1643;47.746;9.000;2024-03-02T08:40:33;11.53;;;8.30;;
3261;SDS011;1643;47.746;9.000;2024-03-02T08:42:59;12.63;;;8.33;;
3261;SDS011;1643;47.746;9.000;2024-03-02T08:45:25;9.23;;;7.47;;
3261;SDS011;1643;47.746;9.000;2024-03-02T08:47:50;11.03;;;8.30;;
3261;SDS011;1643;47.746;9.000;2024-03-02T08:50:16;11.00;;;8.77;;
3261;SDS011;1643;47.746;9.000;2024-03-02T08:52:41;9.87;;;7.30;;
3261;SDS011;1643;47.746;9.000;2024-03-02T08:55:08;14.03;;;7.93;;
3261;SDS011;1643;47.746;9.000;2024-03-02T08:57:34;11.80;;;8.40;;
3261;SDS011;1643;47.746;9.000;2024-03-02T09:00:00;9.33;;;7.10;;
3261;SDS011;1643;47.746;9.000;2024-03-02T09:02:26;11.37;;;7.13;;
3261;SDS011;1643;47.746;9.000;2024-03-02T09:04:52;8.87;;;6.10;;
3261;SDS011;1643;47.746;9.000;2024-03-02T09:07:18;9.30;;;6.70;;
3261;SDS011;1643;47.746;9.000;2024-03-02T09:09:43;8.70;;;7.07;;
3261;SDS011;1643;47.746;9.000;2024-03-02T09:12:09;9.33;;;7.03;;
3261;SDS011;1643;47.746;9.000;2024-03-02T09:14:36;12.07;;;8.33;;
3261;SDS011;1643;47.746;9.000;2024-03-02T09:17:02;13.07;;;8.03;;
3261;SDS011;1643;47.746;9.000;2024-03-02T09:19:28;11.20;;;7.40;;
3261;SDS011;1643;47.746;9.000;2024-03-02T09:21:54;9.33;;;7.30;;
3261;SDS011;1643;47.746;9.000;2024-03-02T09:24:21;11.60;;;8.27;;
3261;SDS011;1643;47.746;9.000;2024-03-02T09:26:46;10.07;;;7.43;;
3261;SDS011;1643;47.746;9.000;2024-03-02T09:29:12;10.83;;;8.80;;
3261;SDS011;1643;47.746;9.000;2024-03-02T09:31:41;16.60;;;12.57;;
3261;SDS011;1643;47.746;9.000;2024-03-02T09:34:08;15.10;;;10.17;;
3261;SDS011;1643;47.746;9.000;2024-03-02T09:36:34;13.00;;;9.90;;
3261;SDS011;1643;47.746;9.000;2024-03-02T09:38:59;10.80;;;8.17;;
3261;SDS011;1643;47.746;9.000;2024-03-02T09:41:25;8.37;;;7.17;;
3261;SDS011;1643;47.746;9.000;2024-03-02T09:43:51;9.67;;;7.30;;
3261;SDS011;1643;47.746;9.000;2024-03-02T09:46:16;11.00;;;7.57;;
3261;SDS011;1643;47.746;9.000;2024-03-02T09:48:43;9.10;;;6.83;;
3261;SDS011;1643;47.746;9.000;2024-03-02T09:51:10;6.83;;;6.13;;
3261;SDS011;1643;47.746;9.000;2024-03-02T09:53:36;9.00;;;6.80;;
3261;SDS011;1643;47.746;9.000;2024-03-02T09:56:02;9.60;;;6.40;;
3261;SDS011;1643;47.746;9.000;2024-03-02T09:58:29;9.50;;;7.00;;
3261;SDS011;1643;47.746;9.000;2024-03-02T10:00:55;8.27;;;6.47;;
3261;SDS011;1643;47.746;9.000;2024-03-02T10:03:22;8.20;;;6.50;;
3261;SDS011;1643;47.746;9.000;2024-03-02T10:05:49;13.03;;;7.87;;
3261;SDS011;1643;47.746;9.000;2024-03-02T10:08:15;11.23;;;8.33;;
3261;SDS011;1643;47.746;9.000;2024-03-02T10:10:41;12.17;;;9.07;;
3261;SDS011;1643;47.746;9.000;2024-03-02T10:13:10;9.80;;;7.90;;
3261;SDS011;1643;47.746;9.000;2024-03-02T10:15:37;11.37;;;8.93;;
3261;SDS011;1643;47.746;9.000;2024-03-02T10:18:11;12.50;;;9.13;;
3261;SDS011;1643;47.746;9.000;2024-03-02T10:20:38;10.30;;;7.90;;
3261;SDS011;1643;47.746;9.000;2024-03-02T10:23:14;12.17;;;8.83;;
3261;SDS011;1643;47.746;9.000;2024-03-02T10:25:41;10.90;;;7.87;;
3261;SDS011;1643;47.746;9.000;2024-03-02T10:28:08;11.17;;;8.30;;
3261;SDS011;1643;47.746;9.000;2024-03-02T10:30:34;10.30;;;7.90;;
3261;SDS011;1643;47.746;9.000;2024-03-02T10:33:00;11.73;;;8.83;;
3261;SDS011;1643;47.746;9.000;2024-03-02T10:35:27;11.03;;;8.40;;
3261;SDS011;1643;47.746;9.000;2024-03-02T10:37:53;11.77;;;8.23;;
3261;SDS011;1643;47.746;9.000;2024-03-02T10:40:22;11.70;;;8.63;;
3261;SDS011;1643;47.746;9.000;2024-03-02T10:42:49;10.23;;;8.10;;
3261;SDS011;1643;47.746;9.000;2024-03-02T10:45:19;11.20;;;7.73;;
3261;SDS011;1643;47.746;9.000;2024-03-02T10:47:48;12.83;;;9.03;;
3261;SDS011;1643;47.746;9.000;2024-03-02T10:50:15;12.50;;;9.80;;
3261;SDS011;1643;47.746;9.000;2024-03-02T10:52:40;12.77;;;9.40;;
3261;SDS011;1643;47.746;9.000;2024-03-02T10:55:07;9.90;;;7.20;;
3261;SDS011;1643;47.746;9.000;2024-03-02T11:00:07;10.33;;;8.13;;
3261;SDS011;1643;47.746;9.000;2024-03-02T11:02:40;10.60;;;8.10;;
3261;SDS011;1643;47.746;9.000;2024-03-02T11:05:11;10.17;;;7.50;;
3261;SDS011;1643;47.746;9.000;2024-03-02T11:07:38;13.33;;;9.60;;
3261;SDS011;1643;47.746;9.000;2024-03-02T11:10:05;11.50;;;7.97;;
3261;SDS011;1643;47.746;9.000;2024-03-02T11:12:44;10.40;;;7.83;;
3261;SDS011;1643;47.746;9.000;2024-03-02T11:15:18;10.10;;;7.50;;
3261;SDS011;1643;47.746;9.000;2024-03-02T11:17:44;11.53;;;9.27;;
3261;SDS011;1643;47.746;9.000;2024-03-02T11:20:11;12.07;;;9.07;;
3261;SDS011;1643;47.746;9.000;2024-03-02T11:22:37;10.60;;;8.20;;
3261;SDS011;1643;47.746;9.000;2024-03-02T11:25:03;10.83;;;8.00;;
3261;SDS011;1643;47.746;9.000;2024-03-02T11:30:23;12.70;;;9.13;;
3261;SDS011;1643;47.746;9.000;2024-03-02T11:33:02;11.13;;;7.20;;
3261;SDS011;1643;47.746;9.000;2024-03-02T11:35:38;13.57;;;9.20;;
3261;SDS011;1643;47.746;9.000;2024-03-02T11:38:11;9.67;;;7.07;;
3261;SDS011;1643;47.746;9.000;2024-03-02T11:40:38;8.40;;;6.80;;
3261;SDS011;1643;47.746;9.000;2024-03-02T11:43:05;11.20;;;8.87;;
3261;SDS011;1643;47.746;9.000;2024-03-02T11:45:33;9.70;;;7.20;;
3261;SDS011;1643;47.746;9.000;2024-03-02T11:47:59;11.30;;;8.47;;
3261;SDS011;1643;47.746;9.000;2024-03-02T11:50:34;9.83;;;8.50;;
3261;SDS011;1643;47.746;9.000;2024-03-02T11:53:09;9.73;;;7.60;;
3261;SDS011;1643;47.746;9.000;2024-03-02T11:55:39;10.40;;;8.07;;
3261;SDS011;1643;47.746;9.000;2024-03-02T11:58:06;9.60;;;7.93;;
3261;SDS011;1643;47.746;9.000;2024-03-02T12:00:34;11.73;;;8.90;;
3261;SDS011;1643;47.746;9.000;2024-03-02T12:05:26;10.93;;;8.57;;
3261;SDS011;1643;47.746;9.000;2024-03-02T12:08:00;11.60;;;9.30;;
3261;SDS011;1643;47.746;9.000;2024-03-02T12:10:27;8.97;;;7.33;;
3261;SDS011;1643;47.746;9.000;2024-03-02T12:13:00;13.33;;;9.90;;
3261;SDS011;1643;47.746;9.000;2024-03-02T12:15:27;10.67;;;7.60;;
3261;SDS011;1643;47.746;9.000;2024-03-02T12:17:57;7.83;;;7.03;;
3261;SDS011;1643;47.746;9.000;2024-03-02T12:20:24;8.80;;;7.00;;
3261;SDS011;1643;47.746;9.000;2024-03-02T12:22:51;9.30;;;7.17;;
3261;SDS011;1643;47.746;9.000;2024-03-02T12:25:19;7.37;;;6.57;;
3261;SDS011;1643;47.746;9.000;2024-03-02T12:27:45;7.20;;;6.20;;
3261;SDS011;1643;47.746;9.000;2024-03-02T12:30:16;8.17;;;6.33;;
3261;SDS011;1643;47.746;9.000;2024-03-02T12:32:43;9.90;;;6.67;;
3261;SDS011;1643;47.746;9.000;2024-03-02T12:35:10;9.10;;;7.47;;
3261;SDS011;1643;47.746;9.000;2024-03-02T12:37:43;9.00;;;6.93;;
3261;SDS011;1643;47.746;9.000;2024-03-02T12:40:13;5.97;;;5.37;;
3261;SDS011;1643;47.746;9.000;2024-03-02T12:42:40;6.60;;;5.90;;
3261;SDS011;1643;47.746;9.000;2024-03-02T12:45:09;8.20;;;6.10;;
3261;SDS011;1643;47.746;9.000;2024-03-02T12:47:35;8.50;;;6.50;;
3261;SDS011;1643;47.746;9.000;2024-03-02T12:50:01;6.47;;;5.33;;
3261;SDS011;1643;47.746;9.000;2024-03-02T12:52:28;6.03;;;5.13;;
3261;SDS011;1643;47.746;9.000;2024-03-02T12:54:55;6.60;;;4.67;;
3261;SDS011;1643;47.746;9.000;2024-03-02T12:57:27;4.30;;;3.90;;
3261;SDS011;1643;47.746;9.000;2024-03-02T12:59:57;4.53;;;3.70;;
3261;SDS011;1643;47.746;9.000;2024-03-02T13:02:34;5.80;;;5.17;;
3261;SDS011;1643;47.746;9.000;2024-03-02T13:05:06;4.80;;;4.30;;
3261;SDS011;1643;47.746;9.000;2024-03-02T13:07:36;5.27;;;4.60;;
3261;SDS011;1643;47.746;9.000;2024-03-02T13:10:06;4.40;;;4.00;;
3261;SDS011;1643;47.746;9.000;2024-03-02T13:12:35;5.00;;;4.50;;
3261;SDS011;1643;47.746;9.000;2024-03-02T13:15:02;4.40;;;3.70;;
3261;SDS011;1643;47.746;9.000;2024-03-02T13:17:28;4.10;;;3.70;;
3261;SDS011;1643;47.746;9.000;2024-03-02T13:19:58;5.00;;;4.50;;
3261;SDS011;1643;47.746;9.000;2024-03-02T13:22:25;4.90;;;3.93;;
3261;SDS011;1643;47.746;9.000;2024-03-02T13:24:51;3.77;;;3.47;;
3261;SDS011;1643;47.746;9.000;2024-03-02T13:27:18;3.43;;;3.13;;
3261;SDS011;1643;47.746;9.000;2024-03-02T13:29:47;3.87;;;3.33;;
3261;SDS011;1643;47.746;9.000;2024-03-02T13:32:13;3.80;;;3.50;;
3261;SDS011;1643;47.746;9.000;2024-03-02T13:34:39;3.90;;;2.57;;
3261;SDS011;1643;47.746;9.000;2024-03-02T13:37:05;2.90;;;2.60;;
3261;SDS011;1643;47.746;9.000;2024-03-02T13:39:37;3.80;;;3.50;;
3261;SDS011;1643;47.746;9.000;2024-03-02T13:42:10;3.87;;;3.50;;
3261;SDS011;1643;47.746;9.000;2024-03-02T13:44:38;5.40;;;3.20;;
3261;SDS011;1643;47.746;9.000;2024-03-02T13:47:04;3.53;;;3.23;;
3261;SDS011;1643;47.746;9.000;2024-03-02T13:49:30;3.33;;;3.03;;
3261;SDS011;1643;47.746;9.000;2024-03-02T13:52:02;4.30;;;3.30;;
3261;SDS011;1643;47.746;9.000;2024-03-02T13:54:48;3.60;;;3.30;;
3261;SDS011;1643;47.746;9.000;2024-03-02T13:57:14;4.30;;;3.10;;
3261;SDS011;1643;47.746;9.000;2024-03-02T13:59:41;2.93;;;2.73;;
3261;SDS011;1643;47.746;9.000;2024-03-02T14:02:07;3.83;;;3.30;;
3261;SDS011;1643;47.746;9.000;2024-03-02T14:04:34;3.23;;;2.97;;
3261;SDS011;1643;47.746;9.000;2024-03-02T14:07:00;2.70;;;2.50;;
3261;SDS011;1643;47.746;9.000;2024-03-02T14:09:26;3.07;;;2.77;;
3261;SDS011;1643;47.746;9.000;2024-03-02T14:11:52;2.57;;;2.37;;
3261;SDS011;1643;47.746;9.000;2024-03-02T14:14:19;2.50;;;2.30;;
3261;SDS011;1643;47.746;9.000;2024-03-02T14:16:45;6.50;;;2.87;;
3261;SDS011;1643;47.746;9.000;2024-03-02T14:19:11;5.70;;;2.53;;
3261;SDS011;1643;47.746;9.000;2024-03-02T14:21:37;2.83;;;2.63;;
3261;SDS011;1643;47.746;9.000;2024-03-02T14:24:04;2.53;;;2.33;;
3261;SDS011;1643;47.746;9.000;2024-03-02T14:26:32;3.00;;;2.20;;
3261;SDS011;1643;47.746;9.000;2024-03-02T14:28:58;3.27;;;2.07;;
3261;SDS011;1643;47.746;9.000;2024-03-02T14:31:26;2.07;;;1.87;;
3261;SDS011;1643;47.746;9.000;2024-03-02T14:33:52;1.90;;;1.80;;
3261;SDS011;1643;47.746;9.000;2024-03-02T14:36:18;2.20;;;2.00;;
3261;SDS011;1643;47.746;9.000;2024-03-02T14:38:44;2.60;;;2.10;;
3261;SDS011;1643;47.746;9.000;2024-03-02T14:41:09;2.33;;;2.13;;
3261;SDS011;1643;47.746;9.000;2024-03-02T14:43:35;2.47;;;2.03;;
3261;SDS011;1643;47.746;9.000;2024-03-02T14:46:02;2.40;;;2.20;;
3261;SDS011;1643;47.746;9.000;2024-03-02T14:48:28;2.07;;;1.93;;
3261;SDS011;1643;47.746;9.000;2024-03-02T14:50:54;2.53;;;2.33;;
3261;SDS011;1643;47.746;9.000;2024-03-02T14:53:23;4.67;;;2.17;;
3261;SDS011;1643;47.746;9.000;2024-03-02T14:55:49;2.40;;;2.20;;
3261;SDS011;1643;47.746;9.000;2024-03-02T14:58:15;3.17;;;2.87;;
3261;SDS011;1643;47.746;9.000;2024-03-02T15:00:41;2.30;;;2.10;;
3261;SDS011;1643;47.746;9.000;2024-03-02T15:03:09;2.30;;;2.10;;
3261;SDS011;1643;47.746;9.000;2024-03-02T15:05:36;2.63;;;2.17;;
3261;SDS011;1643;47.746;9.000;2024-03-02T15:08:03;2.80;;;1.87;;
3261;SDS011;1643;47.746;9.000;2024-03-02T15:10:30;2.23;;;2.03;;